Time;durP1;ratioP1;P1;durP2;ratioP2;P2;SDS_P1;SDS_P2;PMS_P1;PMS_P2;Temp;Humidity;BMP_temperature;BMP_pressure;BME280_temperature;BME280_humidity;BME280_pressure;Samples;Min_cycle;Max_cycle;Signal;HPM_P1;HPM_P2
2021/05/08 00:01:22;;;;;;;;;;;3.70;99.90;;;;;;10499003;28;19924;-83
2021/05/08 00:06:24;;;;;;;;;;;3.70;99.90;;;;;;10498043;28;19931;-83
2021/05/08 00:11:25;;;;;;;;;;;4.40;99.90;;;;;;10499083;28;19925;-83
2021/05/08 00:16:27;;;;;;;;;;;3.60;99.90;;;;;;10499286;28;19925;-85
2021/05/08 00:21:28;;;;;;;;;;;3.40;99.90;;;;;;10498836;28;19924;-84
2021/05/08 00:26:33;;;;;;;;;;;4.50;99.90;;;;;;10496587;28;20283;-83
2021/05/08 00:31:34;;;;;;;;;;;4.80;99.90;;;;;;10497855;28;19924;-84
2021/05/08 00:36:36;;;;;;;;;;;3.80;99.90;;;;;;10497777;28;19964;-84
2021/05/08 00:41:38;;;;;;;;;;;5.90;99.90;;;;;;10480227;28;19967;-84
2021/05/08 00:46:39;;;;;;;;;;;3.60;99.90;;;;;;10480753;28;20705;-84
2021/05/08 00:51:40;;;;;;;;;;;5.50;99.90;;;;;;10496797;28;19924;-84
2021/05/08 00:56:42;;;;;;;;;;;3.50;99.90;;;;;;10498630;28;19931;-85
2021/05/08 01:01:44;;;;;;;;;;;3.50;99.90;;;;;;10497346;28;19925;-84
2021/05/08 01:06:45;;;;;;;;;;;5.50;99.90;;;;;;10498094;28;19924;-84
2021/05/08 01:11:46;;;;;;;;;;;3.30;99.90;;;;;;10503451;28;19924;-84
2021/05/08 01:16:48;;;;;;;;;;;3.30;99.90;;;;;;10505188;28;19931;-84
2021/05/08 01:21:49;;;;;;;;;;;3.20;99.90;;;;;;10505478;28;19924;-84
2021/05/08 01:26:51;;;;;;;;;;;3.20;99.90;;;;;;10504687;28;19928;-84
2021/05/08 01:31:52;;;;;;;;;;;3.20;99.90;;;;;;10505028;28;20474;-84
2021/05/08 01:36:54;;;;;;;;;;;3.10;99.90;;;;;;10503779;28;20019;-84
2021/05/08 01:41:57;;;;;;;;;;;4.30;99.90;;;;;;10505239;28;19993;-84
2021/05/08 01:46:58;;;;;;;;;;;3.30;99.90;;;;;;10487354;28;19925;-84
2021/05/08 01:52:00;;;;;;;;;;;3.50;99.90;;;;;;10503217;28;19931;-84
2021/05/08 01:57:01;;;;;;;;;;;3.60;99.90;;;;;;10479785;28;19931;-84
2021/05/08 02:02:03;;;;;;;;;;;4.00;99.90;;;;;;10444899;28;19936;-84
2021/05/08 02:07:04;;;;;;;;;;;3.80;99.90;;;;;;10428198;28;20372;-84
2021/05/08 02:12:06;;;;;;;;;;;3.80;99.90;;;;;;10445150;28;19925;-84
2021/05/08 02:17:07;;;;;;;;;;;3.90;99.90;;;;;;10444943;28;19946;-84
2021/05/08 02:22:08;;;;;;;;;;;4.80;99.90;;;;;;10443073;28;20344;-84
2021/05/08 02:27:10;;;;;;;;;;;4.40;99.90;;;;;;10451541;28;20299;-84
2021/05/08 02:32:11;;;;;;;;;;;5.80;99.90;;;;;;10497106;28;19924;-84
2021/05/08 02:37:12;;;;;;;;;;;6.50;99.90;;;;;;10501907;28;19933;-84
2021/05/08 02:42:14;;;;;;;;;;;4.60;99.90;;;;;;10485225;28;19924;-84
2021/05/08 02:47:18;;;;;;;;;;;5.30;99.90;;;;;;10484772;28;19925;-84
2021/05/08 02:52:21;;;;;;;;;;;6.50;99.90;;;;;;10503407;28;19925;-84
2021/05/08 02:57:23;;;;;;;;;;;5.20;99.90;;;;;;10500945;28;19929;-84
2021/05/08 03:02:24;;;;;;;;;;;5.20;99.90;;;;;;10502225;28;19931;-84
2021/05/08 03:07:27;;;;;;;;;;;5.80;99.90;;;;;;10483342;28;20261;-84
2021/05/08 03:12:29;;;;;;;;;;;5.20;99.90;;;;;;10500035;28;19925;-84
2021/05/08 03:17:31;;;;;;;;;;;5.60;99.90;;;;;;10501583;28;19933;-84
2021/05/08 03:22:33;;;;;;;;;;;5.70;99.90;;;;;;10483626;28;19929;-84
2021/05/08 03:27:34;;;;;;;;;;;5.40;99.90;;;;;;10499858;28;19925;-84
2021/05/08 03:32:36;;;;;;;;;;;5.30;99.90;;;;;;10499269;28;19924;-84
2021/05/08 03:37:37;;;;;;;;;;;5.30;99.90;;;;;;10499505;28;19974;-84
2021/05/08 03:42:39;;;;;;;;;;;6.60;99.90;;;;;;10500016;28;19924;-84
2021/05/08 03:47:40;;;;;;;;;;;5.20;99.90;;;;;;10500056;28;19978;-84
2021/05/08 03:52:42;;;;;;;;;;;5.90;99.90;;;;;;10490922;28;19971;-84
2021/05/08 03:57:43;;;;;;;;;;;5.20;99.90;;;;;;10500057;28;19925;-84
2021/05/08 04:02:44;;;;;;;;;;;5.10;99.90;;;;;;10490261;28;20393;-84
2021/05/08 04:07:46;;;;;;;;;;;4.80;99.90;;;;;;10497756;28;20371;-84
2021/05/08 04:12:47;;;;;;;;;;;6.60;99.90;;;;;;10481213;28;19924;-84
2021/05/08 04:17:48;;;;;;;;;;;4.70;99.90;;;;;;10481048;28;19925;-84
2021/05/08 04:22:55;;;;;;;;;;;6.70;99.90;;;;;;10497440;28;19931;-84
2021/05/08 04:27:57;;;;;;;;;;;4.50;99.90;;;;;;10496597;28;19976;-84
2021/05/08 04:32:58;;;;;;;;;;;5.70;99.90;;;;;;10496636;28;19931;-84
2021/05/08 04:38:03;;;;;;;;;;;5.10;99.90;;;;;;10499589;28;19970;-84
2021/05/08 04:43:05;;;;;;;;;;;5.20;99.90;;;;;;10496858;28;20390;-84
2021/05/08 04:48:06;;;;;;;;;;;5.50;99.90;;;;;;10465601;28;19924;-84
2021/05/08 04:53:08;;;;;;;;;;;5.80;99.90;;;;;;10446871;28;20380;-84
2021/05/08 04:58:09;;;;;;;;;;;6.00;99.90;;;;;;10446599;28;20003;-84
2021/05/08 05:03:11;;;;;;;;;;;6.20;99.90;;;;;;10446741;28;19955;-84
2021/05/08 05:08:18;;;;;;;;;;;6.30;99.90;;;;;;10466045;23;19928;-85
2021/05/08 05:13:20;;;;;;;;;;;6.40;99.90;;;;;;10488831;28;19924;-85
2021/05/08 05:18:22;;;;;;;;;;;6.50;99.90;;;;;;10487569;28;20364;-85
2021/05/08 05:23:23;;;;;;;;;;;6.60;99.90;;;;;;10487476;28;19925;-85
2021/05/08 05:28:30;;;;;;;;;;;7.30;99.90;;;;;;10472614;28;19975;-85
2021/05/08 05:33:31;;;;;;;;;;;6.90;99.90;;;;;;10490682;28;19968;-83
2021/05/08 05:38:33;;;;;;;;;;;6.90;99.90;;;;;;10470530;28;19939;-84
2021/05/08 05:43:34;;;;;;;;;;;7.40;99.90;;;;;;10469775;28;19936;-84
2021/05/08 05:48:35;;;;;;;;;;;7.40;99.90;;;;;;10469384;28;19924;-83
2021/05/08 05:53:36;;;;;;;;;;;7.70;99.90;;;;;;10486166;28;19924;-84
2021/05/08 05:58:38;;;;;;;;;;;8.10;99.90;;;;;;10484881;28;20298;-84
2021/05/08 06:03:39;;;;;;;;;;;8.20;99.90;;;;;;10479103;28;19925;-84
2021/05/08 06:08:40;;;;;;;;;;;8.20;99.90;;;;;;10461562;28;19932;-84
2021/05/08 06:13:41;;;;;;;;;;;8.20;99.90;;;;;;10462033;28;20000;-84
2021/05/08 06:18:42;;;;;;;;;;;8.30;99.90;;;;;;10443901;28;19935;-83
2021/05/08 06:23:44;;;;;;;;;;;8.50;99.90;;;;;;10460905;28;19933;-84
2021/05/08 06:28:45;;;;;;;;;;;9.20;99.90;;;;;;10460549;28;19932;-84
2021/05/08 06:33:46;;;;;;;;;;;9.20;99.90;;;;;;10468960;28;19928;-83
2021/05/08 06:38:48;;;;;;;;;;;8.50;99.90;;;;;;10499618;28;20401;-83
2021/05/08 06:43:49;;;;;;;;;;;8.40;99.90;;;;;;10483083;28;20283;-83
2021/05/08 06:48:51;;;;;;;;;;;9.50;99.90;;;;;;10466560;28;20279;-83
2021/05/08 06:53:52;;;;;;;;;;;10.30;99.90;;;;;;10483414;28;19925;-84
2021/05/08 06:58:53;;;;;;;;;;;9.20;99.90;;;;;;10466629;28;19925;-84
2021/05/08 07:03:56;;;;;;;;;;;8.70;99.90;;;;;;10441697;28;20371;-84
2021/05/08 07:09:01;;;;;;;;;;;8.80;99.90;;;;;;10458250;28;20284;-84
2021/05/08 07:14:03;;;;;;;;;;;8.90;99.90;;;;;;10437385;28;20308;-84
2021/05/08 07:19:04;;;;;;;;;;;9.00;99.90;;;;;;10465771;28;19936;-84
2021/05/08 07:24:06;;;;;;;;;;;9.00;99.90;;;;;;10482222;28;19925;-84
2021/05/08 07:29:07;;;;;;;;;;;9.10;99.90;;;;;;10499868;28;19928;-83
2021/05/08 07:34:09;;;;;;;;;;;9.10;99.90;;;;;;10499497;28;19929;-83
2021/05/08 07:39:10;;;;;;;;;;;9.40;99.90;;;;;;10481153;28;19925;-84
2021/05/08 07:44:11;;;;;;;;;;;9.60;99.90;;;;;;10467408;28;19974;-83
2021/05/08 07:49:12;;;;;;;;;;;9.70;99.90;;;;;;10457922;28;19960;-84
2021/05/08 07:54:14;;;;;;;;;;;9.80;99.90;;;;;;10440106;28;19928;-84
2021/05/08 07:59:15;;;;;;;;;;;9.90;99.90;;;;;;10457781;28;19932;-84
2021/05/08 08:04:16;;;;;;;;;;;10.20;99.90;;;;;;10439512;28;19974;-85
2021/05/08 08:09:18;;;;;;;;;;;10.20;99.90;;;;;;10467274;28;19924;-84
2021/05/08 08:14:20;;;;;;;;;;;10.20;99.90;;;;;;10463628;28;20273;-84
2021/05/08 08:19:21;;;;;;;;;;;10.30;99.90;;;;;;10478755;28;19925;-84
2021/05/08 08:24:22;;;;;;;;;;;10.40;99.90;;;;;;10462873;28;19925;-84
2021/05/08 08:29:25;;;;;;;;;;;10.70;99.90;;;;;;10479554;28;19929;-84
2021/05/08 08:34:27;;;;;;;;;;;10.70;99.60;;;;;;10479611;28;20286;-86
2021/05/08 08:39:29;;;;;;;;;;;10.90;99.70;;;;;;10476039;28;19928;-84
2021/05/08 08:44:30;;;;;;;;;;;11.10;99.00;;;;;;10474201;28;19939;-84
2021/05/08 08:49:33;;;;;;;;;;;11.10;99.40;;;;;;10475888;28;20346;-85
2021/05/08 08:54:34;;;;;;;;;;;11.30;98.40;;;;;;10507500;28;19934;-85
2021/05/08 08:59:37;;;;;;;;;;;11.40;97.90;;;;;;10515565;28;19928;-83
2021/05/08 09:04:39;;;;;;;;;;;11.70;97.00;;;;;;10533221;28;19935;-83
2021/05/08 09:09:41;;;;;;;;;;;12.00;96.90;;;;;;10526963;28;20411;-83
2021/05/08 09:14:47;;;;;;;;;;;12.60;95.30;;;;;;10492145;28;19929;-83
2021/05/08 09:19:58;;;;;;;;;;;12.70;94.00;;;;;;10472710;28;19935;-83
2021/05/08 09:25:02;;;;;;;;;;;12.70;93.00;;;;;;10468147;28;19928;-84
2021/05/08 09:30:08;;;;;;;;;;;13.30;94.60;;;;;;10434116;28;19929;-84
2021/05/08 09:35:19;;;;;;;;;;;13.10;92.70;;;;;;10443625;28;20390;-84
2021/05/08 09:40:27;;;;;;;;;;;13.50;93.50;;;;;;10455931;28;20008;-85
2021/05/08 09:45:36;;;;;;;;;;;16.10;95.30;;;;;;10439623;28;20011;-85
2021/05/08 09:50:37;;;;;;;;;;;14.30;90.40;;;;;;10457064;28;19983;-84
2021/05/08 09:55:39;;;;;;;;;;;14.60;90.30;;;;;;10463811;28;19932;-84
2021/05/08 10:00:41;;;;;;;;;;;14.30;84.80;;;;;;10438795;28;19929;-84
2021/05/08 10:05:49;;;;;;;;;;;13.90;87.00;;;;;;10440538;28;19999;-84
2021/05/08 10:10:51;;;;;;;;;;;14.10;92.20;;;;;;10438808;28;19929;-83
2021/05/08 10:15:54;;;;;;;;;;;13.80;89.20;;;;;;10436981;28;19932;-84
2021/05/08 10:20:56;;;;;;;;;;;13.90;91.70;;;;;;10460360;28;20028;-84
2021/05/08 10:26:01;;;;;;;;;;;13.80;91.00;;;;;;10466481;28;19928;-83
2021/05/08 10:31:06;;;;;;;;;;;14.00;91.00;;;;;;10470794;28;20436;-84
2021/05/08 10:36:08;;;;;;;;;;;14.00;91.60;;;;;;10460943;28;20003;-84
2021/05/08 10:41:14;;;;;;;;;;;14.20;88.80;;;;;;10460707;28;19925;-84
2021/05/08 10:46:16;;;;;;;;;;;14.40;90.00;;;;;;10425209;28;19931;-84
2021/05/08 10:51:18;;;;;;;;;;;13.80;85.30;;;;;;10442755;28;20391;-84
2021/05/08 10:56:32;;;;;;;;;;;13.80;88.00;;;;;;10442465;28;19964;-84
2021/05/08 11:01:44;;;;;;;;;;;13.70;90.60;;;;;;10442193;28;19982;-84
2021/05/08 11:07:08;;;;;;;;;;;13.50;90.30;;;;;;10464387;23;19951;-83
2021/05/08 11:12:09;;;;;;;;;;;13.50;93.70;;;;;;10452897;28;20390;-83
2021/05/08 11:17:10;;;;;;;;;;;13.50;91.90;;;;;;10441982;28;20295;-84
2021/05/08 11:22:15;;;;;;;;;;;13.70;96.60;;;;;;10459267;28;20295;-84
2021/05/08 11:27:20;;;;;;;;;;;13.60;95.90;;;;;;10442031;28;19925;-84
2021/05/08 11:32:23;;;;;;;;;;;13.20;99.00;;;;;;10441383;28;19924;-84
2021/05/08 11:37:24;;;;;;;;;;;12.90;99.00;;;;;;10416629;28;19972;-84
2021/05/08 11:42:27;;;;;;;;;;;12.60;99.90;;;;;;10399761;28;20367;-84
2021/05/08 11:47:29;;;;;;;;;;;12.60;99.90;;;;;;10383905;28;19931;-84
2021/05/08 11:52:35;;;;;;;;;;;12.30;99.90;;;;;;10400689;28;19925;-85
2021/05/08 11:57:36;;;;;;;;;;;12.10;99.90;;;;;;10400021;28;19963;-84
2021/05/08 12:02:38;;;;;;;;;;;11.90;99.90;;;;;;10417260;28;19925;-84
2021/05/08 12:07:40;;;;;;;;;;;11.40;99.90;;;;;;10394247;28;19933;-84
2021/05/08 12:12:45;;;;;;;;;;;11.30;99.90;;;;;;10432420;28;19931;-85
2021/05/08 12:17:51;;;;;;;;;;;11.10;99.90;;;;;;10422424;28;19931;-85
2021/05/08 12:22:54;;;;;;;;;;;11.10;99.90;;;;;;10424397;28;20012;-85
2021/05/08 12:28:14;;;;;;;;;;;11.00;99.90;;;;;;10445402;28;19928;-85
2021/05/08 12:33:19;;;;;;;;;;;11.00;99.90;;;;;;10437412;28;19933;-85
2021/05/08 12:38:20;;;;;;;;;;;10.90;99.90;;;;;;10433723;28;20307;-86
2021/05/08 12:43:31;;;;;;;;;;;10.90;99.90;;;;;;10452053;28;19929;-86
2021/05/08 12:48:36;;;;;;;;;;;10.90;99.90;;;;;;10432614;28;20294;-86
2021/05/08 12:53:38;;;;;;;;;;;10.90;99.90;;;;;;10433582;28;20395;-87
2021/05/08 12:58:39;;;;;;;;;;;11.00;99.90;;;;;;10451069;28;19975;-87
2021/05/08 13:03:41;;;;;;;;;;;10.90;99.90;;;;;;10432975;28;19928;-87
2021/05/08 13:08:43;;;;;;;;;;;10.90;99.90;;;;;;10416988;28;19929;-86
2021/05/08 13:13:44;;;;;;;;;;;11.10;99.90;;;;;;10400570;28;19936;-87
2021/05/08 13:18:46;;;;;;;;;;;11.10;99.90;;;;;;10383424;28;19931;-87
2021/05/08 13:23:47;;;;;;;;;;;11.30;99.90;;;;;;10399120;28;19952;-86
2021/05/08 13:28:48;;;;;;;;;;;11.50;99.90;;;;;;10403388;28;20351;-85
2021/05/08 13:33:49;;;;;;;;;;;11.50;99.90;;;;;;10404738;28;20287;-85
2021/05/08 13:38:51;;;;;;;;;;;11.70;99.90;;;;;;10446835;28;20390;-86
2021/05/08 13:43:53;;;;;;;;;;;12.00;99.90;;;;;;10445614;28;20380;-86
2021/05/08 13:48:54;;;;;;;;;;;12.10;99.90;;;;;;10429473;28;19932;-85
2021/05/08 13:53:55;;;;;;;;;;;11.90;99.90;;;;;;10441716;28;19935;-85
2021/05/08 13:58:56;;;;;;;;;;;12.10;99.90;;;;;;10444722;28;20306;-86
2021/05/08 14:03:57;;;;;;;;;;;12.30;99.90;;;;;;10422762;28;19933;-86
2021/05/08 14:08:59;;;;;;;;;;;12.50;99.90;;;;;;10386411;28;20686;-85
2021/05/08 14:14:00;;;;;;;;;;;12.30;99.90;;;;;;10401992;28;20368;-85
2021/05/08 14:19:02;;;;;;;;;;;12.30;99.90;;;;;;10396540;28;20605;-85
2021/05/08 14:24:03;;;;;;;;;;;12.20;99.90;;;;;;10399810;28;20269;-86
2021/05/08 14:29:05;;;;;;;;;;;12.10;99.90;;;;;;10402194;28;19929;-85
2021/05/08 14:34:07;;;;;;;;;;;12.20;99.90;;;;;;10402311;28;19931;-85
2021/05/08 14:39:09;;;;;;;;;;;12.30;99.90;;;;;;10401482;28;19948;-85
2021/05/08 14:44:10;;;;;;;;;;;12.20;99.90;;;;;;10389417;28;19929;-85
2021/05/08 14:49:12;;;;;;;;;;;12.10;99.90;;;;;;10459333;28;19925;-85
2021/05/08 14:54:13;;;;;;;;;;;12.00;99.90;;;;;;10441245;28;20372;-85
2021/05/08 14:59:15;;;;;;;;;;;12.00;99.90;;;;;;10424868;28;19935;-84
2021/05/08 15:04:16;;;;;;;;;;;12.20;99.90;;;;;;10417563;28;20275;-85
2021/05/08 15:09:18;;;;;;;;;;;12.30;99.90;;;;;;10417240;28;19928;-85
2021/05/08 15:14:24;;;;;;;;;;;12.50;99.90;;;;;;10417514;28;19995;-85
2021/05/08 15:19:25;;;;;;;;;;;12.70;99.90;;;;;;10400266;28;19935;-84
2021/05/08 15:24:27;;;;;;;;;;;13.00;99.90;;;;;;10410658;28;19928;-85
2021/05/08 15:29:29;;;;;;;;;;;13.20;99.90;;;;;;10472390;28;19932;-85
2021/05/08 15:34:30;;;;;;;;;;;13.60;99.90;;;;;;10437859;28;19932;-85
2021/05/08 15:39:31;;;;;;;;;;;13.90;99.90;;;;;;10413312;28;20287;-85
2021/05/08 15:44:33;;;;;;;;;;;14.20;99.90;;;;;;10432240;28;19929;-85
2021/05/08 15:49:35;;;;;;;;;;;14.20;99.90;;;;;;10399146;28;19929;-85
2021/05/08 15:54:37;;;;;;;;;;;14.50;99.90;;;;;;10382904;28;19929;-85
2021/05/08 15:59:38;;;;;;;;;;;14.50;99.90;;;;;;10453285;28;19924;-85
2021/05/08 16:04:39;;;;;;;;;;;14.60;99.90;;;;;;10439693;28;19943;-85
2021/05/08 16:09:41;;;;;;;;;;;14.60;99.90;;;;;;10456288;28;19924;-85
2021/05/08 16:14:43;;;;;;;;;;;14.60;99.90;;;;;;10438836;28;20407;-85
2021/05/08 16:19:44;;;;;;;;;;;14.50;99.90;;;;;;10456406;28;19925;-85
2021/05/08 16:24:46;;;;;;;;;;;14.60;99.90;;;;;;10442606;28;19925;-85
2021/05/08 16:29:47;;;;;;;;;;;14.70;99.90;;;;;;10414572;28;20339;-85
2021/05/08 16:34:48;;;;;;;;;;;14.80;99.90;;;;;;10397612;28;19932;-85
2021/05/08 16:39:50;;;;;;;;;;;15.10;99.90;;;;;;10396047;28;20028;-85
2021/05/08 16:44:51;;;;;;;;;;;15.30;99.90;;;;;;10397006;28;19936;-85
2021/05/08 16:49:52;;;;;;;;;;;15.40;99.90;;;;;;10395075;28;19929;-86
2021/05/08 16:54:54;;;;;;;;;;;15.30;99.90;;;;;;10430505;28;19924;-86
2021/05/08 16:59:55;;;;;;;;;;;15.40;99.90;;;;;;10452298;28;19929;-85
2021/05/08 17:04:56;;;;;;;;;;;15.50;99.90;;;;;;10435334;28;19925;-85
2021/05/08 17:09:58;;;;;;;;;;;15.50;99.90;;;;;;10454625;28;19932;-85
2021/05/08 17:14:59;;;;;;;;;;;15.60;99.90;;;;;;10421477;28;19931;-85
2021/05/08 17:20:01;;;;;;;;;;;15.70;99.90;;;;;;10467695;22;19959;-85
2021/05/08 17:25:03;;;;;;;;;;;17.40;99.90;;;;;;10397851;28;20008;-85
2021/05/08 17:30:05;;;;;;;;;;;15.70;99.90;;;;;;10450013;28;19925;-85
2021/05/08 17:35:06;;;;;;;;;;;15.50;99.90;;;;;;10437009;28;19936;-85
2021/05/08 17:40:08;;;;;;;;;;;15.60;99.90;;;;;;10451798;28;19932;-85
2021/05/08 17:45:09;;;;;;;;;;;15.60;99.90;;;;;;10437245;28;19924;-85
2021/05/08 17:50:11;;;;;;;;;;;15.50;99.90;;;;;;10449791;28;19925;-84
2021/05/08 17:55:12;;;;;;;;;;;15.40;99.90;;;;;;10403873;28;20702;-85
2021/05/08 18:00:14;;;;;;;;;;;15.20;99.90;;;;;;10403563;28;19929;-84
2021/05/08 18:05:15;;;;;;;;;;;15.40;99.90;;;;;;10403562;28;20641;-85
2021/05/08 18:10:16;;;;;;;;;;;15.30;99.90;;;;;;10404233;28;20024;-85
2021/05/08 18:15:18;;;;;;;;;;;15.20;99.90;;;;;;10385234;28;20005;-85
2021/05/08 18:20:20;;;;;;;;;;;15.10;99.90;;;;;;10420826;28;19941;-85
2021/05/08 18:25:21;;;;;;;;;;;15.00;99.90;;;;;;10420792;28;19929;-85
2021/05/08 18:30:23;;;;;;;;;;;14.70;99.90;;;;;;10419841;28;20008;-85
2021/05/08 18:35:24;;;;;;;;;;;14.60;99.90;;;;;;10454562;28;20015;-85
2021/05/08 18:40:26;;;;;;;;;;;14.70;99.90;;;;;;10433790;28;20022;-85
2021/05/08 18:45:29;;;;;;;;;;;14.50;99.90;;;;;;10386103;28;19925;-85
2021/05/08 18:50:30;;;;;;;;;;;14.40;99.90;;;;;;10440931;28;19925;-85
2021/05/08 18:55:32;;;;;;;;;;;15.00;99.90;;;;;;10435533;28;20296;-85
2021/05/08 19:00:33;;;;;;;;;;;14.90;99.90;;;;;;10441779;28;20034;-85
2021/05/08 19:05:37;;;;;;;;;;;14.90;99.90;;;;;;10441937;28;20347;-85
2021/05/08 19:10:42;;;;;;;;;;;15.00;99.90;;;;;;10433686;28;19931;-85
2021/05/08 19:15:43;;;;;;;;;;;14.80;99.90;;;;;;10401633;28;19925;-85
2021/05/08 19:20:45;;;;;;;;;;;14.70;99.90;;;;;;10384464;28;19996;-85
2021/05/08 19:25:46;;;;;;;;;;;15.10;99.90;;;;;;10400818;28;20020;-85
2021/05/08 19:30:47;;;;;;;;;;;15.10;99.90;;;;;;10416124;28;19932;-85
2021/05/08 19:35:49;;;;;;;;;;;15.10;99.90;;;;;;10400211;28;20376;-85
2021/05/08 19:40:50;;;;;;;;;;;15.10;99.90;;;;;;10399133;28;20403;-85
2021/05/08 19:45:52;;;;;;;;;;;15.20;99.90;;;;;;10417760;28;19924;-85
2021/05/08 19:50:53;;;;;;;;;;;15.10;99.90;;;;;;10417281;28;19925;-85
2021/05/08 19:55:55;;;;;;;;;;;15.50;99.90;;;;;;10416652;28;19925;-85
2021/05/08 20:00:56;;;;;;;;;;;15.50;99.90;;;;;;10417631;28;20016;-85
2021/05/08 20:05:57;;;;;;;;;;;15.40;99.90;;;;;;10383531;28;19925;-85
2021/05/08 20:10:59;;;;;;;;;;;15.40;99.90;;;;;;10383171;28;19925;-85
2021/05/08 20:16:00;;;;;;;;;;;15.50;99.90;;;;;;10416956;28;19925;-85
2021/05/08 20:21:02;;;;;;;;;;;15.50;99.90;;;;;;10416411;28;19929;-85
2021/05/08 20:26:03;;;;;;;;;;;15.50;99.90;;;;;;10398271;28;20270;-85
2021/05/08 20:31:04;;;;;;;;;;;15.10;99.90;;;;;;10410533;28;20299;-85
2021/05/08 20:36:06;;;;;;;;;;;15.40;99.90;;;;;;10453685;28;19925;-85
2021/05/08 20:41:07;;;;;;;;;;;15.40;99.90;;;;;;10420182;28;19925;-85
2021/05/08 20:46:09;;;;;;;;;;;15.40;99.90;;;;;;10456143;28;19935;-85
2021/05/08 20:51:10;;;;;;;;;;;15.50;99.90;;;;;;10422652;28;20380;-85
2021/05/08 20:56:11;;;;;;;;;;;15.40;99.90;;;;;;10439355;28;19924;-85
2021/05/08 21:01:13;;;;;;;;;;;15.50;99.90;;;;;;10438883;28;19931;-85
2021/05/08 21:06:15;;;;;;;;;;;15.20;99.90;;;;;;10455585;28;20812;-85
2021/05/08 21:11:16;;;;;;;;;;;15.40;99.90;;;;;;10437900;28;19933;-85
2021/05/08 21:16:17;;;;;;;;;;;15.60;99.90;;;;;;10436405;28;19931;-85
2021/05/08 21:21:19;;;;;;;;;;;15.20;99.90;;;;;;10438223;28;20375;-85
2021/05/08 21:26:20;;;;;;;;;;;15.40;99.90;;;;;;10439434;28;19925;-85
2021/05/08 21:31:21;;;;;;;;;;;15.40;99.90;;;;;;10445329;28;19931;-85
2021/05/08 21:36:23;;;;;;;;;;;15.20;99.90;;;;;;10464526;28;19925;-85
2021/05/08 21:41:25;;;;;;;;;;;15.20;99.90;;;;;;10463290;28;20379;-84
2021/05/08 21:46:32;;;;;;;;;;;15.00;99.90;;;;;;10431155;28;19972;-84
2021/05/08 21:51:34;;;;;;;;;;;15.00;99.90;;;;;;10460592;28;19990;-84
2021/05/08 21:56:38;;;;;;;;;;;14.80;99.90;;;;;;10444119;28;19932;-84
2021/05/08 22:01:40;;;;;;;;;;;14.80;99.90;;;;;;10461793;28;20031;-84
2021/05/08 22:06:41;;;;;;;;;;;14.50;99.90;;;;;;10445421;28;19924;-84
2021/05/08 22:11:43;;;;;;;;;;;14.80;99.90;;;;;;10427292;28;19924;-85
2021/05/08 22:16:44;;;;;;;;;;;14.20;99.90;;;;;;10443696;28;19939;-85
2021/05/08 22:21:46;;;;;;;;;;;14.10;99.90;;;;;;10428073;28;20007;-85
2021/05/08 22:26:47;;;;;;;;;;;14.30;99.90;;;;;;10461935;28;20291;-85
2021/05/08 22:31:49;;;;;;;;;;;14.30;99.90;;;;;;10444109;28;19925;-85
2021/05/08 22:36:51;;;;;;;;;;;14.30;99.90;;;;;;10444647;28;19931;-84
2021/05/08 22:41:53;;;;;;;;;;;14.30;99.90;;;;;;10442887;28;19947;-84
2021/05/08 22:46:54;;;;;;;;;;;14.00;99.90;;;;;;10462479;28;19932;-84
2021/05/08 22:51:56;;;;;;;;;;;14.20;99.90;;;;;;10461528;28;19928;-84
2021/05/08 22:56:57;;;;;;;;;;;14.30;99.90;;;;;;10427289;28;19925;-84
2021/05/08 23:01:59;;;;;;;;;;;14.00;99.90;;;;;;10442808;28;19931;-84
2021/05/08 23:07:00;;;;;;;;;;;13.70;99.90;;;;;;10460728;28;19967;-84
2021/05/08 23:12:01;;;;;;;;;;;13.80;99.90;;;;;;10459249;28;19928;-84
2021/05/08 23:17:03;;;;;;;;;;;14.00;99.90;;;;;;10458945;28;20284;-85
2021/05/08 23:22:04;;;;;;;;;;;13.90;99.90;;;;;;10402992;28;19925;-85
2021/05/08 23:27:05;;;;;;;;;;;13.60;99.90;;;;;;10415216;28;19948;-85
2021/05/08 23:32:07;;;;;;;;;;;13.30;99.90;;;;;;10449691;28;19932;-85
2021/05/08 23:37:08;;;;;;;;;;;12.90;99.90;;;;;;10468841;22;20023;-86
2021/05/08 23:42:10;;;;;;;;;;;12.60;99.90;;;;;;10495642;28;19931;-86
2021/05/08 23:47:11;;;;;;;;;;;12.70;99.90;;;;;;10499692;28;19931;-86
2021/05/08 23:52:13;;;;;;;;;;;13.00;99.90;;;;;;10498795;28;19928;-86
2021/05/08 23:57:14;;;;;;;;;;;13.20;99.90;;;;;;10499283;28;19924;-86
